sensor_id;sensor_type;location;lat;lon;timestamp;P1;durP1;ratioP1;P2;durP2;ratioP2
33902;SDS011;20194;50.950;5.346;2024-01-30T00:01:55;17.90;;;10.85;;
33902;SDS011;20194;50.950;5.346;2024-01-30T00:04:20;18.80;;;11.55;;
33902;SDS011;20194;50.950;5.346;2024-01-30T00:06:46;18.15;;;10.48;;
33902;SDS011;20194;50.950;5.346;2024-01-30T00:09:12;19.05;;;11.10;;
33902;SDS011;20194;50.950;5.346;2024-01-30T00:11:38;15.75;;;8.88;;
33902;SDS011;20194;50.950;5.346;2024-01-30T00:14:04;13.88;;;9.02;;
33902;SDS011;20194;50.950;5.346;2024-01-30T00:16:30;17.25;;;9.10;;
33902;SDS011;20194;50.950;5.346;2024-01-30T00:18:56;17.33;;;9.57;;
33902;SDS011;20194;50.950;5.346;2024-01-30T00:21:22;14.20;;;8.77;;
33902;SDS011;20194;50.950;5.346;2024-01-30T00:23:48;12.93;;;8.20;;
33902;SDS011;20194;50.950;5.346;2024-01-30T00:26:14;15.93;;;8.60;;
33902;SDS011;20194;50.950;5.346;2024-01-30T00:28:41;15.20;;;8.50;;
33902;SDS011;20194;50.950;5.346;2024-01-30T00:31:07;17.77;;;9.50;;
33902;SDS011;20194;50.950;5.346;2024-01-30T00:33:37;15.43;;;8.98;;
33902;SDS011;20194;50.950;5.346;2024-01-30T00:36:03;13.65;;;7.95;;
33902;SDS011;20194;50.950;5.346;2024-01-30T00:38:31;14.48;;;8.25;;
33902;SDS011;20194;50.950;5.346;2024-01-30T00:40:57;15.38;;;8.27;;
33902;SDS011;20194;50.950;5.346;2024-01-30T00:43:23;13.82;;;8.43;;
33902;SDS011;20194;50.950;5.346;2024-01-30T00:45:50;13.20;;;8.38;;
33902;SDS011;20194;50.950;5.346;2024-01-30T00:48:17;14.77;;;8.13;;
33902;SDS011;20194;50.950;5.346;2024-01-30T00:50:43;12.65;;;7.57;;
33902;SDS011;20194;50.950;5.346;2024-01-30T00:53:09;13.90;;;8.60;;
33902;SDS011;20194;50.950;5.346;2024-01-30T00:55:35;15.35;;;8.02;;
33902;SDS011;20194;50.950;5.346;2024-01-30T00:58:01;19.73;;;8.65;;
33902;SDS011;20194;50.950;5.346;2024-01-30T01:00:27;17.95;;;7.97;;
33902;SDS011;20194;50.950;5.346;2024-01-30T01:02:56;12.27;;;7.90;;
33902;SDS011;20194;50.950;5.346;2024-01-30T01:05:22;14.57;;;7.93;;
33902;SDS011;20194;50.950;5.346;2024-01-30T01:07:48;15.50;;;8.05;;
33902;SDS011;20194;50.950;5.346;2024-01-30T01:10:14;18.75;;;8.00;;
33902;SDS011;20194;50.950;5.346;2024-01-30T01:12:41;12.48;;;7.32;;
33902;SDS011;20194;50.950;5.346;2024-01-30T01:15:07;13.13;;;7.18;;
33902;SDS011;20194;50.950;5.346;2024-01-30T01:17:38;14.95;;;7.43;;
33902;SDS011;20194;50.950;5.346;2024-01-30T01:20:05;14.05;;;7.93;;
33902;SDS011;20194;50.950;5.346;2024-01-30T01:22:32;15.88;;;8.23;;
33902;SDS011;20194;50.950;5.346;2024-01-30T01:24:58;13.23;;;7.75;;
33902;SDS011;20194;50.950;5.346;2024-01-30T01:27:25;12.63;;;7.85;;
33902;SDS011;20194;50.950;5.346;2024-01-30T01:29:51;13.32;;;7.30;;
33902;SDS011;20194;50.950;5.346;2024-01-30T01:32:17;12.57;;;7.03;;
33902;SDS011;20194;50.950;5.346;2024-01-30T01:34:44;13.43;;;6.85;;
33902;SDS011;20194;50.950;5.346;2024-01-30T01:37:10;18.65;;;7.88;;
33902;SDS011;20194;50.950;5.346;2024-01-30T01:39:36;12.05;;;8.00;;
33902;SDS011;20194;50.950;5.346;2024-01-30T01:42:01;11.13;;;7.35;;
33902;SDS011;20194;50.950;5.346;2024-01-30T01:44:27;16.77;;;8.10;;
33902;SDS011;20194;50.950;5.346;2024-01-30T01:46:54;15.38;;;8.10;;
33902;SDS011;20194;50.950;5.346;2024-01-30T01:49:20;13.50;;;7.72;;
33902;SDS011;20194;50.950;5.346;2024-01-30T01:51:48;13.88;;;7.63;;
33902;SDS011;20194;50.950;5.346;2024-01-30T01:54:14;12.65;;;7.53;;
33902;SDS011;20194;50.950;5.346;2024-01-30T01:56:41;15.48;;;7.80;;
33902;SDS011;20194;50.950;5.346;2024-01-30T01:59:08;15.07;;;7.47;;
33902;SDS011;20194;50.950;5.346;2024-01-30T02:01:34;13.35;;;7.88;;
33902;SDS011;20194;50.950;5.346;2024-01-30T02:04:01;13.77;;;8.60;;
33902;SDS011;20194;50.950;5.346;2024-01-30T02:06:27;16.20;;;7.53;;
33902;SDS011;20194;50.950;5.346;2024-01-30T02:08:54;12.40;;;7.40;;
33902;SDS011;20194;50.950;5.346;2024-01-30T02:11:20;11.57;;;6.90;;
33902;SDS011;20194;50.950;5.346;2024-01-30T02:13:47;12.32;;;7.18;;
33902;SDS011;20194;50.950;5.346;2024-01-30T02:16:14;12.48;;;7.05;;
33902;SDS011;20194;50.950;5.346;2024-01-30T02:18:40;11.82;;;7.65;;
33902;SDS011;20194;50.950;5.346;2024-01-30T02:21:10;15.82;;;7.55;;
33902;SDS011;20194;50.950;5.346;2024-01-30T02:23:36;11.02;;;6.82;;
33902;SDS011;20194;50.950;5.346;2024-01-30T02:26:02;13.88;;;6.95;;
33902;SDS011;20194;50.950;5.346;2024-01-30T02:28:28;10.95;;;6.78;;
33902;SDS011;20194;50.950;5.346;2024-01-30T02:30:54;10.27;;;7.00;;
33902;SDS011;20194;50.950;5.346;2024-01-30T02:33:19;11.13;;;6.63;;
33902;SDS011;20194;50.950;5.346;2024-01-30T02:35:47;11.85;;;6.68;;
33902;SDS011;20194;50.950;5.346;2024-01-30T02:38:13;9.88;;;6.57;;
33902;SDS011;20194;50.950;5.346;2024-01-30T02:40:38;9.23;;;6.18;;
33902;SDS011;20194;50.950;5.346;2024-01-30T02:43:04;10.32;;;6.20;;
33902;SDS011;20194;50.950;5.346;2024-01-30T02:45:30;13.77;;;6.65;;
33902;SDS011;20194;50.950;5.346;2024-01-30T02:47:55;11.07;;;6.15;;
33902;SDS011;20194;50.950;5.346;2024-01-30T02:50:21;13.45;;;6.85;;
33902;SDS011;20194;50.950;5.346;2024-01-30T02:52:47;8.05;;;5.43;;
33902;SDS011;20194;50.950;5.346;2024-01-30T02:55:12;10.73;;;5.90;;
33902;SDS011;20194;50.950;5.346;2024-01-30T02:57:38;12.43;;;6.25;;
33902;SDS011;20194;50.950;5.346;2024-01-30T03:00:05;11.82;;;6.13;;
33902;SDS011;20194;50.950;5.346;2024-01-30T03:02:34;11.68;;;6.30;;
33902;SDS011;20194;50.950;5.346;2024-01-30T03:04:59;8.25;;;5.40;;
33902;SDS011;20194;50.950;5.346;2024-01-30T03:07:25;10.40;;;5.60;;
33902;SDS011;20194;50.950;5.346;2024-01-30T03:09:51;11.63;;;6.47;;
33902;SDS011;20194;50.950;5.346;2024-01-30T03:12:16;16.77;;;6.50;;
33902;SDS011;20194;50.950;5.346;2024-01-30T03:14:42;10.90;;;6.35;;
33902;SDS011;20194;50.950;5.346;2024-01-30T03:17:09;14.25;;;5.68;;
33902;SDS011;20194;50.950;5.346;2024-01-30T03:19:34;9.13;;;5.88;;
33902;SDS011;20194;50.950;5.346;2024-01-30T03:22:00;15.73;;;6.40;;
33902;SDS011;20194;50.950;5.346;2024-01-30T03:24:25;10.73;;;6.30;;
33902;SDS011;20194;50.950;5.346;2024-01-30T03:26:51;10.98;;;6.18;;
33902;SDS011;20194;50.950;5.346;2024-01-30T03:29:18;9.98;;;5.47;;
33902;SDS011;20194;50.950;5.346;2024-01-30T03:31:43;9.57;;;5.93;;
33902;SDS011;20194;50.950;5.346;2024-01-30T03:34:09;10.63;;;6.10;;
33902;SDS011;20194;50.950;5.346;2024-01-30T03:36:35;9.77;;;5.88;;
33902;SDS011;20194;50.950;5.346;2024-01-30T03:39:01;11.63;;;5.78;;
33902;SDS011;20194;50.950;5.346;2024-01-30T03:41:27;8.75;;;5.55;;
33902;SDS011;20194;50.950;5.346;2024-01-30T03:43:53;13.13;;;6.57;;
33902;SDS011;20194;50.950;5.346;2024-01-30T03:46:18;10.00;;;5.53;;
33902;SDS011;20194;50.950;5.346;2024-01-30T03:48:44;9.00;;;5.10;;
33902;SDS011;20194;50.950;5.346;2024-01-30T03:51:11;9.48;;;5.78;;
33902;SDS011;20194;50.950;5.346;2024-01-30T03:53:43;11.52;;;5.25;;
33902;SDS011;20194;50.950;5.346;2024-01-30T03:56:11;12.80;;;6.47;;
33902;SDS011;20194;50.950;5.346;2024-01-30T03:58:38;7.72;;;5.55;;
33902;SDS011;20194;50.950;5.346;2024-01-30T04:01:04;16.45;;;5.85;;
33902;SDS011;20194;50.950;5.346;2024-01-30T04:03:30;9.43;;;5.68;;
33902;SDS011;20194;50.950;5.346;2024-01-30T04:05:55;8.38;;;5.75;;
33902;SDS011;20194;50.950;5.346;2024-01-30T04:08:21;9.95;;;5.50;;
33902;SDS011;20194;50.950;5.346;2024-01-30T04:10:47;8.82;;;5.72;;
33902;SDS011;20194;50.950;5.346;2024-01-30T04:13:13;11.85;;;6.07;;
33902;SDS011;20194;50.950;5.346;2024-01-30T04:15:39;12.35;;;5.90;;
33902;SDS011;20194;50.950;5.346;2024-01-30T04:18:05;9.38;;;5.30;;
33902;SDS011;20194;50.950;5.346;2024-01-30T04:20:30;12.23;;;5.93;;
33902;SDS011;20194;50.950;5.346;2024-01-30T04:22:56;8.68;;;5.22;;
33902;SDS011;20194;50.950;5.346;2024-01-30T04:25:22;13.60;;;5.63;;
33902;SDS011;20194;50.950;5.346;2024-01-30T04:27:47;12.60;;;5.70;;
33902;SDS011;20194;50.950;5.346;2024-01-30T04:30:13;11.68;;;6.07;;
33902;SDS011;20194;50.950;5.346;2024-01-30T04:32:40;12.55;;;5.85;;
33902;SDS011;20194;50.950;5.346;2024-01-30T04:35:06;8.77;;;5.80;;
33902;SDS011;20194;50.950;5.346;2024-01-30T04:37:31;9.20;;;5.47;;
33902;SDS011;20194;50.950;5.346;2024-01-30T04:39:57;8.98;;;5.32;;
33902;SDS011;20194;50.950;5.346;2024-01-30T04:42:23;9.07;;;5.22;;
33902;SDS011;20194;50.950;5.346;2024-01-30T04:44:49;7.60;;;5.35;;
33902;SDS011;20194;50.950;5.346;2024-01-30T04:47:15;13.55;;;6.25;;
33902;SDS011;20194;50.950;5.346;2024-01-30T04:49:41;11.55;;;5.80;;
33902;SDS011;20194;50.950;5.346;2024-01-30T04:52:07;11.60;;;6.07;;
33902;SDS011;20194;50.950;5.346;2024-01-30T04:54:33;11.23;;;6.00;;
33902;SDS011;20194;50.950;5.346;2024-01-30T04:57:00;14.40;;;5.60;;
33902;SDS011;20194;50.950;5.346;2024-01-30T04:59:26;8.57;;;5.60;;
33902;SDS011;20194;50.950;5.346;2024-01-30T05:01:51;11.48;;;6.18;;
33902;SDS011;20194;50.950;5.346;2024-01-30T05:04:17;13.75;;;6.20;;
33902;SDS011;20194;50.950;5.346;2024-01-30T05:06:43;11.10;;;5.53;;
33902;SDS011;20194;50.950;5.346;2024-01-30T05:09:08;10.95;;;5.88;;
33902;SDS011;20194;50.950;5.346;2024-01-30T05:11:40;10.70;;;5.85;;
33902;SDS011;20194;50.950;5.346;2024-01-30T05:14:06;10.40;;;5.93;;
33902;SDS011;20194;50.950;5.346;2024-01-30T05:16:32;11.60;;;6.70;;
33902;SDS011;20194;50.950;5.346;2024-01-30T05:18:58;12.40;;;6.70;;
33902;SDS011;20194;50.950;5.346;2024-01-30T05:21:24;13.60;;;6.40;;
33902;SDS011;20194;50.950;5.346;2024-01-30T05:23:50;9.75;;;5.68;;
33902;SDS011;20194;50.950;5.346;2024-01-30T05:26:16;12.98;;;6.10;;
33902;SDS011;20194;50.950;5.346;2024-01-30T05:28:42;10.18;;;5.68;;
33902;SDS011;20194;50.950;5.346;2024-01-30T05:31:09;8.20;;;5.75;;
33902;SDS011;20194;50.950;5.346;2024-01-30T05:33:35;11.55;;;5.82;;
33902;SDS011;20194;50.950;5.346;2024-01-30T05:36:01;12.13;;;6.05;;
33902;SDS011;20194;50.950;5.346;2024-01-30T05:38:30;9.52;;;5.63;;
33902;SDS011;20194;50.950;5.346;2024-01-30T05:40:57;11.32;;;5.50;;
33902;SDS011;20194;50.950;5.346;2024-01-30T05:43:23;11.05;;;5.47;;
33902;SDS011;20194;50.950;5.346;2024-01-30T05:45:49;9.48;;;5.90;;
33902;SDS011;20194;50.950;5.346;2024-01-30T05:48:15;9.88;;;5.55;;
33902;SDS011;20194;50.950;5.346;2024-01-30T05:50:41;11.80;;;5.78;;
33902;SDS011;20194;50.950;5.346;2024-01-30T05:53:06;9.13;;;5.85;;
33902;SDS011;20194;50.950;5.346;2024-01-30T05:55:32;17.92;;;6.68;;
33902;SDS011;20194;50.950;5.346;2024-01-30T05:57:58;11.82;;;5.78;;
33902;SDS011;20194;50.950;5.346;2024-01-30T06:00:23;11.32;;;5.88;;
33902;SDS011;20194;50.950;5.346;2024-01-30T06:02:49;11.48;;;6.18;;
33902;SDS011;20194;50.950;5.346;2024-01-30T06:05:14;8.55;;;5.32;;
33902;SDS011;20194;50.950;5.346;2024-01-30T06:07:40;11.32;;;6.65;;
33902;SDS011;20194;50.950;5.346;2024-01-30T06:10:06;8.43;;;5.93;;
33902;SDS011;20194;50.950;5.346;2024-01-30T06:12:33;12.30;;;6.07;;
33902;SDS011;20194;50.950;5.346;2024-01-30T06:15:03;10.88;;;5.57;;
33902;SDS011;20194;50.950;5.346;2024-01-30T06:17:29;10.95;;;5.80;;
33902;SDS011;20194;50.950;5.346;2024-01-30T06:19:55;13.40;;;6.45;;
33902;SDS011;20194;50.950;5.346;2024-01-30T06:22:20;9.82;;;6.45;;
33902;SDS011;20194;50.950;5.346;2024-01-30T06:24:46;10.25;;;5.50;;
33902;SDS011;20194;50.950;5.346;2024-01-30T06:27:13;10.43;;;6.50;;
33902;SDS011;20194;50.950;5.346;2024-01-30T06:29:40;14.43;;;6.80;;
33902;SDS011;20194;50.950;5.346;2024-01-30T06:32:07;10.82;;;6.13;;
33902;SDS011;20194;50.950;5.346;2024-01-30T06:34:33;14.02;;;6.10;;
33902;SDS011;20194;50.950;5.346;2024-01-30T06:36:58;11.43;;;6.28;;
33902;SDS011;20194;50.950;5.346;2024-01-30T06:39:24;11.02;;;5.85;;
33902;SDS011;20194;50.950;5.346;2024-01-30T06:41:51;9.40;;;6.38;;
33902;SDS011;20194;50.950;5.346;2024-01-30T06:44:16;9.90;;;6.57;;
33902;SDS011;20194;50.950;5.346;2024-01-30T06:46:42;11.45;;;7.53;;
33902;SDS011;20194;50.950;5.346;2024-01-30T06:49:08;15.98;;;6.43;;
33902;SDS011;20194;50.950;5.346;2024-01-30T06:51:33;13.75;;;6.25;;
33902;SDS011;20194;50.950;5.346;2024-01-30T06:53:59;12.27;;;6.53;;
33902;SDS011;20194;50.950;5.346;2024-01-30T06:56:25;14.38;;;6.25;;
33902;SDS011;20194;50.950;5.346;2024-01-30T06:58:51;10.98;;;6.25;;
33902;SDS011;20194;50.950;5.346;2024-01-30T07:01:16;12.05;;;6.30;;
33902;SDS011;20194;50.950;5.346;2024-01-30T07:03:42;10.48;;;6.03;;
33902;SDS011;20194;50.950;5.346;2024-01-30T07:06:09;11.75;;;6.10;;
33902;SDS011;20194;50.950;5.346;2024-01-30T07:08:37;11.82;;;6.18;;
33902;SDS011;20194;50.950;5.346;2024-01-30T07:11:06;13.25;;;7.05;;
33902;SDS011;20194;50.950;5.346;2024-01-30T07:13:33;9.50;;;5.82;;
33902;SDS011;20194;50.950;5.346;2024-01-30T07:15:59;14.88;;;6.40;;
33902;SDS011;20194;50.950;5.346;2024-01-30T07:18:25;13.20;;;6.95;;
33902;SDS011;20194;50.950;5.346;2024-01-30T07:20:51;13.25;;;6.22;;
33902;SDS011;20194;50.950;5.346;2024-01-30T07:23:16;13.48;;;6.47;;
33902;SDS011;20194;50.950;5.346;2024-01-30T07:25:46;14.60;;;6.60;;
33902;SDS011;20194;50.950;5.346;2024-01-30T07:28:15;12.00;;;6.35;;
33902;SDS011;20194;50.950;5.346;2024-01-30T07:30:43;13.80;;;7.35;;
33902;SDS011;20194;50.950;5.346;2024-01-30T07:33:09;12.10;;;6.65;;
33902;SDS011;20194;50.950;5.346;2024-01-30T07:35:35;17.83;;;7.00;;
33902;SDS011;20194;50.950;5.346;2024-01-30T07:38:01;10.25;;;6.25;;
33902;SDS011;20194;50.950;5.346;2024-01-30T07:40:27;15.13;;;7.07;;
33902;SDS011;20194;50.950;5.346;2024-01-30T07:42:53;15.48;;;6.95;;
33902;SDS011;20194;50.950;5.346;2024-01-30T07:45:19;11.20;;;6.68;;
33902;SDS011;20194;50.950;5.346;2024-01-30T07:47:49;16.90;;;7.03;;
33902;SDS011;20194;50.950;5.346;2024-01-30T07:50:15;24.63;;;8.45;;
33902;SDS011;20194;50.950;5.346;2024-01-30T07:52:41;18.35;;;7.28;;
33902;SDS011;20194;50.950;5.346;2024-01-30T07:55:07;16.88;;;8.35;;
33902;SDS011;20194;50.950;5.346;2024-01-30T07:57:33;16.08;;;8.80;;
33902;SDS011;20194;50.950;5.346;2024-01-30T07:59:59;13.60;;;7.03;;
33902;SDS011;20194;50.950;5.346;2024-01-30T08:02:28;20.15;;;7.78;;
33902;SDS011;20194;50.950;5.346;2024-01-30T08:04:54;22.40;;;7.20;;
33902;SDS011;20194;50.950;5.346;2024-01-30T08:07:19;13.10;;;6.95;;
33902;SDS011;20194;50.950;5.346;2024-01-30T08:09:47;13.10;;;6.50;;
33902;SDS011;20194;50.950;5.346;2024-01-30T08:12:12;12.10;;;6.47;;
33902;SDS011;20194;50.950;5.346;2024-01-30T08:14:39;11.70;;;6.28;;
33902;SDS011;20194;50.950;5.346;2024-01-30T08:17:06;12.20;;;6.38;;
33902;SDS011;20194;50.950;5.346;2024-01-30T08:19:32;12.50;;;6.60;;
33902;SDS011;20194;50.950;5.346;2024-01-30T08:21:58;10.90;;;6.45;;
33902;SDS011;20194;50.950;5.346;2024-01-30T08:24:24;13.95;;;6.00;;
33902;SDS011;20194;50.950;5.346;2024-01-30T08:26:50;17.63;;;7.35;;
33902;SDS011;20194;50.950;5.346;2024-01-30T08:29:15;17.52;;;6.97;;
33902;SDS011;20194;50.950;5.346;2024-01-30T08:31:41;21.70;;;7.30;;
33902;SDS011;20194;50.950;5.346;2024-01-30T08:34:07;14.18;;;6.70;;
33902;SDS011;20194;50.950;5.346;2024-01-30T08:36:32;16.40;;;6.22;;
33902;SDS011;20194;50.950;5.346;2024-01-30T08:38:58;13.38;;;6.20;;
33902;SDS011;20194;50.950;5.346;2024-01-30T08:41:24;14.55;;;6.78;;
33902;SDS011;20194;50.950;5.346;2024-01-30T08:43:49;11.50;;;6.30;;
33902;SDS011;20194;50.950;5.346;2024-01-30T08:46:18;12.30;;;6.30;;
33902;SDS011;20194;50.950;5.346;2024-01-30T08:48:45;11.23;;;6.85;;
33902;SDS011;20194;50.950;5.346;2024-01-30T08:51:11;15.65;;;7.38;;
33902;SDS011;20194;50.950;5.346;2024-01-30T08:53:37;15.05;;;6.28;;
33902;SDS011;20194;50.950;5.346;2024-01-30T08:56:05;18.85;;;7.18;;
33902;SDS011;20194;50.950;5.346;2024-01-30T08:58:31;17.90;;;7.18;;
33902;SDS011;20194;50.950;5.346;2024-01-30T09:00:58;15.57;;;6.40;;
33902;SDS011;20194;50.950;5.346;2024-01-30T09:03:24;10.23;;;6.05;;
33902;SDS011;20194;50.950;5.346;2024-01-30T09:05:49;15.95;;;6.32;;
33902;SDS011;20194;50.950;5.346;2024-01-30T09:08:15;14.82;;;7.38;;
33902;SDS011;20194;50.950;5.346;2024-01-30T09:10:41;13.02;;;6.50;;
33902;SDS011;20194;50.950;5.346;2024-01-30T09:13:06;12.63;;;6.47;;
33902;SDS011;20194;50.950;5.346;2024-01-30T09:15:32;12.73;;;6.15;;
33902;SDS011;20194;50.950;5.346;2024-01-30T09:17:58;22.55;;;6.95;;
33902;SDS011;20194;50.950;5.346;2024-01-30T09:20:24;14.45;;;6.80;;
33902;SDS011;20194;50.950;5.346;2024-01-30T09:22:49;16.88;;;6.60;;
33902;SDS011;20194;50.950;5.346;2024-01-30T09:25:15;11.45;;;6.18;;
33902;SDS011;20194;50.950;5.346;2024-01-30T09:27:41;16.63;;;6.80;;
33902;SDS011;20194;50.950;5.346;2024-01-30T09:30:06;16.83;;;7.22;;
33902;SDS011;20194;50.950;5.346;2024-01-30T09:32:32;12.55;;;6.90;;
33902;SDS011;20194;50.950;5.346;2024-01-30T09:34:59;10.07;;;6.28;;
33902;SDS011;20194;50.950;5.346;2024-01-30T09:37:25;16.02;;;6.72;;
33902;SDS011;20194;50.950;5.346;2024-01-30T09:39:50;13.85;;;6.72;;
33902;SDS011;20194;50.950;5.346;2024-01-30T09:42:21;16.90;;;6.53;;
33902;SDS011;20194;50.950;5.346;2024-01-30T09:45:04;15.90;;;6.78;;
33902;SDS011;20194;50.950;5.346;2024-01-30T09:47:40;12.02;;;6.28;;
33902;SDS011;20194;50.950;5.346;2024-01-30T09:50:08;15.02;;;7.07;;
33902;SDS011;20194;50.950;5.346;2024-01-30T09:52:35;20.17;;;7.43;;
33902;SDS011;20194;50.950;5.346;2024-01-30T09:55:01;16.98;;;6.72;;
33902;SDS011;20194;50.950;5.346;2024-01-30T09:57:28;19.10;;;7.07;;
33902;SDS011;20194;50.950;5.346;2024-01-30T09:59:53;20.13;;;7.35;;
33902;SDS011;20194;50.950;5.346;2024-01-30T10:02:19;22.50;;;7.32;;
33902;SDS011;20194;50.950;5.346;2024-01-30T10:04:49;16.45;;;6.60;;
33902;SDS011;20194;50.950;5.346;2024-01-30T10:07:15;18.90;;;6.43;;
33902;SDS011;20194;50.950;5.346;2024-01-30T10:09:42;16.02;;;6.40;;
33902;SDS011;20194;50.950;5.346;2024-01-30T10:12:08;18.50;;;6.78;;
33902;SDS011;20194;50.950;5.346;2024-01-30T10:14:37;14.88;;;7.30;;
33902;SDS011;20194;50.950;5.346;2024-01-30T10:17:10;19.58;;;6.93;;
33902;SDS011;20194;50.950;5.346;2024-01-30T10:19:40;16.10;;;6.90;;
33902;SDS011;20194;50.950;5.346;2024-01-30T10:22:06;16.40;;;7.00;;
33902;SDS011;20194;50.950;5.346;2024-01-30T10:24:33;16.50;;;6.72;;
33902;SDS011;20194;50.950;5.346;2024-01-30T10:26:59;23.55;;;7.50;;
33902;SDS011;20194;50.950;5.346;2024-01-30T10:29:25;12.63;;;7.07;;
33902;SDS011;20194;50.950;5.346;2024-01-30T10:32:01;15.18;;;6.50;;
33902;SDS011;20194;50.950;5.346;2024-01-30T10:34:28;18.95;;;7.75;;
33902;SDS011;20194;50.950;5.346;2024-01-30T10:37:05;16.67;;;7.93;;
33902;SDS011;20194;50.950;5.346;2024-01-30T10:39:43;17.42;;;6.68;;
33902;SDS011;20194;50.950;5.346;2024-01-30T10:42:19;16.02;;;6.97;;
33902;SDS011;20194;50.950;5.346;2024-01-30T10:45:02;20.23;;;7.32;;
33902;SDS011;20194;50.950;5.346;2024-01-30T10:47:33;19.08;;;7.60;;
33902;SDS011;20194;50.950;5.346;2024-01-30T10:50:03;22.95;;;8.00;;
33902;SDS011;20194;50.950;5.346;2024-01-30T10:52:29;27.58;;;8.60;;
33902;SDS011;20194;50.950;5.346;2024-01-30T10:54:56;12.52;;;5.53;;
33902;SDS011;20194;50.950;5.346;2024-01-30T10:57:23;23.95;;;8.73;;
33902;SDS011;20194;50.950;5.346;2024-01-30T10:59:50;23.17;;;8.20;;
33902;SDS011;20194;50.950;5.346;2024-01-30T11:02:18;16.77;;;7.65;;
33902;SDS011;20194;50.950;5.346;2024-01-30T11:04:45;20.27;;;7.60;;
33902;SDS011;20194;50.950;5.346;2024-01-30T11:07:17;23.38;;;7.60;;
33902;SDS011;20194;50.950;5.346;2024-01-30T11:09:53;24.00;;;8.82;;
33902;SDS011;20194;50.950;5.346;2024-01-30T11:12:28;19.95;;;8.57;;
33902;SDS011;20194;50.950;5.346;2024-01-30T11:17:44;18.88;;;8.07;;
33902;SDS011;20194;50.950;5.346;2024-01-30T11:20:11;15.30;;;7.80;;
33902;SDS011;20194;50.950;5.346;2024-01-30T11:22:40;20.05;;;8.38;;
33902;SDS011;20194;50.950;5.346;2024-01-30T11:25:11;20.85;;;9.13;;
33902;SDS011;20194;50.950;5.346;2024-01-30T11:27:41;17.75;;;7.60;;
33902;SDS011;20194;50.950;5.346;2024-01-30T11:30:08;18.35;;;8.68;;
33902;SDS011;20194;50.950;5.346;2024-01-30T11:32:33;21.83;;;8.20;;
33902;SDS011;20194;50.950;5.346;2024-01-30T11:35:00;20.23;;;9.70;;
33902;SDS011;20194;50.950;5.346;2024-01-30T11:37:28;19.20;;;8.70;;
33902;SDS011;20194;50.950;5.346;2024-01-30T11:39:56;25.50;;;9.43;;
33902;SDS011;20194;50.950;5.346;2024-01-30T11:42:22;25.98;;;8.63;;
33902;SDS011;20194;50.950;5.346;2024-01-30T11:44:50;24.80;;;9.57;;
33902;SDS011;20194;50.950;5.346;2024-01-30T11:47:16;20.55;;;9.48;;
33902;SDS011;20194;50.950;5.346;2024-01-30T11:49:42;20.10;;;10.75;;
33902;SDS011;20194;50.950;5.346;2024-01-30T11:52:08;23.13;;;10.48;;
33902;SDS011;20194;50.950;5.346;2024-01-30T11:54:35;24.90;;;9.15;;
33902;SDS011;20194;50.950;5.346;2024-01-30T11:57:01;20.70;;;10.00;;
33902;SDS011;20194;50.950;5.346;2024-01-30T11:59:26;20.90;;;9.77;;
33902;SDS011;20194;50.950;5.346;2024-01-30T12:01:52;19.45;;;9.77;;
33902;SDS011;20194;50.950;5.346;2024-01-30T12:04:18;26.10;;;9.60;;
33902;SDS011;20194;50.950;5.346;2024-01-30T12:06:43;26.90;;;9.80;;
33902;SDS011;20194;50.950;5.346;2024-01-30T12:09:09;32.45;;;9.90;;
33902;SDS011;20194;50.950;5.346;2024-01-30T12:11:46;19.75;;;9.50;;
33902;SDS011;20194;50.950;5.346;2024-01-30T12:14:13;21.42;;;10.40;;
33902;SDS011;20194;50.950;5.346;2024-01-30T12:16:40;19.63;;;10.43;;
33902;SDS011;20194;50.950;5.346;2024-01-30T12:19:09;22.92;;;10.13;;
33902;SDS011;20194;50.950;5.346;2024-01-30T12:21:34;19.45;;;9.13;;
33902;SDS011;20194;50.950;5.346;2024-01-30T12:24:01;22.02;;;9.73;;
33902;SDS011;20194;50.950;5.346;2024-01-30T12:26:26;21.80;;;9.65;;
33902;SDS011;20194;50.950;5.346;2024-01-30T12:28:55;18.55;;;9.75;;
33902;SDS011;20194;50.950;5.346;2024-01-30T12:31:26;18.15;;;9.88;;
33902;SDS011;20194;50.950;5.346;2024-01-30T12:33:53;24.63;;;9.80;;
33902;SDS011;20194;50.950;5.346;2024-01-30T12:36:19;18.73;;;9.40;;
33902;SDS011;20194;50.950;5.346;2024-01-30T12:38:45;22.30;;;10.60;;
33902;SDS011;20194;50.950;5.346;2024-01-30T12:41:11;16.63;;;8.82;;
33902;SDS011;20194;50.950;5.346;2024-01-30T12:43:37;18.58;;;7.57;;
33902;SDS011;20194;50.950;5.346;2024-01-30T12:46:02;14.00;;;5.90;;
33902;SDS011;20194;50.950;5.346;2024-01-30T12:48:28;16.65;;;6.05;;
33902;SDS011;20194;50.950;5.346;2024-01-30T12:50:55;11.85;;;6.07;;
33902;SDS011;20194;50.950;5.346;2024-01-30T12:53:21;12.48;;;5.53;;
33902;SDS011;20194;50.950;5.346;2024-01-30T12:55:47;13.18;;;4.57;;
33902;SDS011;20194;50.950;5.346;2024-01-30T12:58:14;10.95;;;4.60;;
33902;SDS011;20194;50.950;5.346;2024-01-30T13:00:40;15.98;;;4.30;;
33902;SDS011;20194;50.950;5.346;2024-01-30T13:03:08;9.10;;;3.22;;
33902;SDS011;20194;50.950;5.346;2024-01-30T13:05:35;7.93;;;3.45;;
33902;SDS011;20194;50.950;5.346;2024-01-30T13:08:01;7.40;;;3.17;;
33902;SDS011;20194;50.950;5.346;2024-01-30T13:10:26;8.20;;;2.85;;
33902;SDS011;20194;50.950;5.346;2024-01-30T13:12:52;8.57;;;2.88;;
33902;SDS011;20194;50.950;5.346;2024-01-30T13:15:18;5.10;;;2.25;;
33902;SDS011;20194;50.950;5.346;2024-01-30T13:17:44;5.15;;;2.50;;
33902;SDS011;20194;50.950;5.346;2024-01-30T13:20:12;5.15;;;2.20;;
33902;SDS011;20194;50.950;5.346;2024-01-30T13:22:41;5.97;;;1.92;;
33902;SDS011;20194;50.950;5.346;2024-01-30T13:25:08;4.03;;;2.00;;
33902;SDS011;20194;50.950;5.346;2024-01-30T13:27:34;3.72;;;2.10;;
33902;SDS011;20194;50.950;5.346;2024-01-30T13:30:00;6.90;;;2.20;;
33902;SDS011;20194;50.950;5.346;2024-01-30T13:32:26;6.03;;;1.80;;
33902;SDS011;20194;50.950;5.346;2024-01-30T13:34:52;6.75;;;2.50;;
33902;SDS011;20194;50.950;5.346;2024-01-30T13:37:17;7.13;;;1.63;;
33902;SDS011;20194;50.950;5.346;2024-01-30T13:39:43;4.55;;;1.50;;
33902;SDS011;20194;50.950;5.346;2024-01-30T13:42:09;3.72;;;1.60;;
33902;SDS011;20194;50.950;5.346;2024-01-30T13:44:35;4.00;;;0.90;;
33902;SDS011;20194;50.950;5.346;2024-01-30T13:47:01;7.25;;;1.10;;
33902;SDS011;20194;50.950;5.346;2024-01-30T13:49:27;7.07;;;1.40;;
33902;SDS011;20194;50.950;5.346;2024-01-30T13:51:52;8.93;;;1.13;;
33902;SDS011;20194;50.950;5.346;2024-01-30T13:54:18;2.60;;;0.90;;
33902;SDS011;20194;50.950;5.346;2024-01-30T13:56:44;5.15;;;0.80;;
33902;SDS011;20194;50.950;5.346;2024-01-30T13:59:10;12.13;;;1.25;;
33902;SDS011;20194;50.950;5.346;2024-01-30T14:01:35;3.10;;;0.75;;
33902;SDS011;20194;50.950;5.346;2024-01-30T14:04:01;5.65;;;1.38;;
33902;SDS011;20194;50.950;5.346;2024-01-30T14:06:27;2.38;;;0.90;;
33902;SDS011;20194;50.950;5.346;2024-01-30T14:08:53;3.55;;;1.20;;
33902;SDS011;20194;50.950;5.346;2024-01-30T14:11:18;1.88;;;0.55;;
33902;SDS011;20194;50.950;5.346;2024-01-30T14:13:44;2.90;;;1.13;;
33902;SDS011;20194;50.950;5.346;2024-01-30T14:16:10;0.98;;;0.55;;
33902;SDS011;20194;50.950;5.346;2024-01-30T14:18:36;3.90;;;1.00;;
33902;SDS011;20194;50.950;5.346;2024-01-30T14:21:01;3.42;;;0.60;;
33902;SDS011;20194;50.950;5.346;2024-01-30T14:23:27;1.00;;;0.47;;
33902;SDS011;20194;50.950;5.346;2024-01-30T14:25:53;1.95;;;0.70;;
33902;SDS011;20194;50.950;5.346;2024-01-30T14:28:19;2.03;;;0.80;;
33902;SDS011;20194;50.950;5.346;2024-01-30T14:30:44;3.55;;;0.60;;
33902;SDS011;20194;50.950;5.346;2024-01-30T14:33:10;4.72;;;0.68;;
33902;SDS011;20194;50.950;5.346;2024-01-30T14:35:36;4.53;;;0.70;;